createdAt,value
2022-12-27T00:00:11.758Z,1.22
2022-12-27T00:02:44.706Z,1.54
2022-12-27T00:05:13.631Z,1.41
2022-12-27T00:07:44.559Z,2.17
2022-12-27T00:10:14.061Z,2.49
2022-12-27T00:12:43.115Z,2.45
2022-12-27T00:15:11.602Z,2.96
2022-12-27T00:17:42.132Z,2.82
2022-12-27T00:20:11.847Z,2.32
2022-12-27T00:22:41.366Z,2.68
2022-12-27T00:25:10.017Z,2.68
2022-12-27T00:27:38.977Z,1.85
2022-12-27T00:30:08.100Z,2.09
2022-12-27T00:32:36.504Z,1.76
2022-12-27T00:35:06.557Z,1.53
2022-12-27T00:37:35.486Z,1.98
2022-12-27T00:40:04.085Z,2.36
2022-12-27T00:42:33.611Z,2.95
2022-12-27T00:45:02.013Z,2.65
2022-12-27T00:47:30.897Z,3.26
2022-12-27T00:49:59.272Z,3.74
2022-12-27T00:52:28.856Z,1.81
2022-12-27T00:54:58.425Z,3.15
2022-12-27T00:57:27.285Z,2.71
2022-12-27T00:59:55.713Z,3.30
2022-12-27T01:02:24.254Z,3.55
2022-12-27T01:04:54.140Z,2.68
2022-12-27T01:07:23.033Z,3.54
2022-12-27T01:09:52.001Z,2.67
2022-12-27T01:12:20.446Z,3.07
2022-12-27T01:14:48.836Z,3.63
2022-12-27T01:17:17.800Z,3.14
2022-12-27T01:19:46.900Z,3.48
2022-12-27T01:22:15.311Z,3.68
2022-12-27T01:24:44.949Z,3.48
2022-12-27T01:27:13.347Z,3.56
2022-12-27T01:29:41.698Z,3.38
2022-12-27T01:32:10.135Z,3.43
2022-12-27T01:34:39.755Z,3.43
2022-12-27T01:37:08.184Z,2.86
2022-12-27T01:39:36.707Z,3.11
2022-12-27T01:42:25.454Z,3.30
2022-12-27T01:44:56.795Z,3.25
2022-12-27T01:47:39.388Z,2.66
2022-12-27T01:50:39.736Z,2.69
2022-12-27T01:53:31.623Z,2.84
2022-12-27T01:56:05.055Z,3.06
2022-12-27T01:58:38.104Z,3.02
2022-12-27T02:01:10.644Z,2.82
2022-12-27T02:03:39.086Z,3.28
2022-12-27T02:06:08.883Z,3.11
2022-12-27T02:09:07.578Z,2.58
2022-12-27T02:11:52.134Z,3.09
2022-12-27T02:14:44.540Z,2.25
2022-12-27T02:17:18.838Z,2.64
2022-12-27T02:20:05.463Z,2.68
2022-12-27T02:23:04.241Z,2.69
2022-12-27T02:25:50.910Z,2.56
2022-12-27T02:28:56.592Z,2.42
2022-12-27T02:31:33.867Z,1.83
2022-12-27T02:34:05.296Z,2.40
2022-12-27T02:36:34.347Z,2.07
2022-12-27T02:39:02.735Z,2.09
2022-12-27T02:41:49.886Z,2.69
2022-12-27T02:44:37.481Z,1.93
2022-12-27T02:47:41.012Z,2.36
2022-12-27T02:50:30.362Z,1.80
2022-12-27T02:53:12.772Z,2.52
2022-12-27T02:56:33.826Z,2.39
2022-12-27T02:59:28.042Z,2.41
2022-12-27T03:02:31.432Z,2.25
2022-12-27T03:05:19.168Z,2.10
2022-12-27T03:08:18.023Z,2.47
2022-12-27T03:11:07.761Z,2.23
2022-12-27T03:13:58.545Z,2.34
2022-12-27T03:16:33.322Z,2.47
2022-12-27T03:19:15.394Z,2.36
2022-12-27T03:22:25.488Z,2.04
2022-12-27T03:25:12.483Z,2.16
2022-12-27T03:27:41.815Z,2.65
2022-12-27T03:30:28.857Z,2.48
2022-12-27T03:33:17.080Z,2.25
2022-12-27T03:36:28.999Z,1.71
2022-12-27T03:39:08.731Z,2.70
2022-12-27T03:42:01.438Z,2.40
2022-12-27T03:44:29.902Z,2.75
2022-12-27T03:47:05.933Z,1.76
2022-12-27T03:49:37.035Z,2.89
2022-12-27T03:52:24.154Z,2.89
2022-12-27T03:54:52.565Z,3.10
2022-12-27T03:57:26.415Z,3.20
2022-12-27T03:59:55.682Z,3.19
2022-12-27T04:02:24.367Z,3.33
2022-12-27T04:04:53.541Z,3.05
2022-12-27T04:07:21.947Z,2.96
2022-12-27T04:10:10.020Z,3.25
2022-12-27T04:12:56.685Z,3.19
2022-12-27T04:15:43.503Z,3.12
2022-12-27T04:18:30.184Z,2.79
2022-12-27T04:21:17.465Z,3.07
2022-12-27T04:24:04.296Z,2.29
2022-12-27T04:26:51.177Z,2.61
2022-12-27T04:29:37.850Z,2.54
2022-12-27T04:32:26.233Z,2.12
2022-12-27T04:34:54.591Z,2.35
2022-12-27T04:37:23.042Z,2.82
2022-12-27T04:40:10.174Z,2.82
2022-12-27T04:42:56.819Z,2.49
2022-12-27T04:45:43.466Z,3.45
2022-12-27T04:48:34.370Z,3.59
2022-12-27T04:51:21.254Z,2.73
2022-12-27T04:54:07.991Z,3.07
2022-12-27T04:56:36.983Z,3.75
2022-12-27T04:59:23.572Z,3.36
2022-12-27T05:02:03.993Z,2.96
2022-12-27T05:04:34.568Z,3.40
2022-12-27T05:07:25.496Z,3.77
2022-12-27T05:10:12.608Z,3.97
2022-12-27T05:13:00.642Z,2.77
2022-12-27T05:15:29.039Z,3.61
2022-12-27T05:17:57.848Z,3.19
2022-12-27T05:20:26.371Z,2.49
2022-12-27T05:23:13.166Z,2.97
2022-12-27T05:25:44.711Z,3.65
2022-12-27T05:28:14.420Z,3.86
2022-12-27T05:30:43.696Z,4.47
2022-12-27T05:33:12.195Z,4.18
2022-12-27T05:35:40.655Z,4.49
2022-12-27T05:38:09.229Z,3.59
2022-12-27T05:40:37.502Z,4.33
2022-12-27T05:43:05.972Z,4.15
2022-12-27T05:45:34.966Z,4.63
2022-12-27T05:48:03.402Z,4.57
2022-12-27T05:50:31.801Z,4.61
2022-12-27T05:53:12.861Z,4.48
2022-12-27T05:55:41.762Z,4.42
2022-12-27T05:58:10.195Z,4.82
2022-12-27T06:00:38.579Z,5.09
2022-12-27T06:03:07.747Z,4.77
2022-12-27T06:05:36.260Z,4.32
2022-12-27T06:08:04.759Z,4.67
2022-12-27T06:10:33.181Z,4.82
2022-12-27T06:13:01.981Z,4.90
2022-12-27T06:15:30.438Z,4.96
2022-12-27T06:17:59.312Z,4.45
2022-12-27T06:20:28.389Z,4.86
2022-12-27T06:22:59.377Z,4.69
2022-12-27T06:25:29.034Z,4.47
2022-12-27T06:27:58.860Z,4.66
2022-12-27T06:30:29.331Z,4.54
2022-12-27T06:33:01.288Z,5.02
2022-12-27T06:35:30.472Z,5.03
2022-12-27T06:37:58.919Z,4.93
2022-12-27T06:40:27.265Z,5.11
2022-12-27T06:42:55.770Z,5.18
2022-12-27T06:45:24.188Z,5.12
2022-12-27T06:47:52.824Z,4.98
2022-12-27T06:50:21.561Z,5.35
2022-12-27T06:52:50.067Z,5.18
2022-12-27T06:55:18.496Z,5.20
2022-12-27T06:57:47.080Z,4.37
2022-12-27T07:00:16.370Z,3.62
2022-12-27T07:02:44.916Z,4.29
2022-12-27T07:05:14.015Z,4.94
2022-12-27T07:07:43.490Z,5.18
2022-12-27T07:10:11.939Z,5.09
2022-12-27T07:12:41.102Z,5.28
2022-12-27T07:15:10.457Z,5.57
2022-12-27T07:17:39.850Z,5.73
2022-12-27T07:20:08.839Z,5.75
2022-12-27T07:22:37.255Z,6.05
2022-12-27T07:25:06.358Z,6.28
2022-12-27T07:27:36.830Z,6.73
2022-12-27T07:30:05.962Z,8.09
2022-12-27T07:32:35.164Z,8.01
2022-12-27T07:35:03.809Z,7.08
2022-12-27T07:37:32.206Z,8.25
2022-12-27T07:40:00.636Z,8.37
2022-12-27T07:42:29.504Z,6.92
2022-12-27T07:44:57.966Z,7.99
2022-12-27T07:47:26.379Z,9.34
2022-12-27T07:49:54.863Z,10.11
2022-12-27T07:52:23.236Z,10.73
2022-12-27T07:54:51.871Z,11.62
2022-12-27T07:57:20.334Z,12.26
2022-12-27T07:59:48.650Z,13.01
2022-12-27T08:02:17.245Z,13.14
2022-12-27T08:04:45.792Z,12.40
2022-12-27T08:07:18.102Z,13.01
2022-12-27T08:09:47.528Z,12.13
2022-12-27T08:12:15.997Z,12.47
2022-12-27T08:14:45.284Z,12.92
2022-12-27T08:17:24.810Z,12.42
2022-12-27T08:19:54.055Z,10.71
2022-12-27T08:22:23.041Z,10.91
2022-12-27T08:24:51.479Z,11.17
2022-12-27T08:27:22.678Z,11.09
2022-12-27T08:29:51.174Z,12.24
2022-12-27T08:32:19.917Z,13.57
2022-12-27T08:34:48.918Z,14.75
2022-12-27T08:37:17.309Z,16.02
2022-12-27T08:39:46.104Z,16.99
2022-12-27T08:42:15.111Z,17.45
2022-12-27T08:44:44.391Z,17.55
2022-12-27T08:47:12.806Z,18.00
2022-12-27T08:49:41.248Z,19.28
2022-12-27T08:52:09.601Z,20.80
2022-12-27T08:54:38.031Z,22.30
2022-12-27T08:57:06.623Z,23.88
2022-12-27T08:59:35.053Z,25.26
2022-12-27T09:02:03.806Z,26.48
2022-12-27T09:04:32.309Z,26.64
2022-12-27T09:07:00.767Z,27.83
2022-12-27T09:09:29.273Z,28.51
2022-12-27T09:11:57.713Z,29.17
2022-12-27T09:14:26.317Z,28.92
2022-12-27T09:16:54.883Z,29.27
2022-12-27T09:19:23.353Z,29.26
2022-12-27T09:21:51.822Z,28.53
2022-12-27T09:24:20.271Z,28.55
2022-12-27T09:26:48.648Z,23.71
2022-12-27T09:29:18.149Z,26.53
2022-12-27T09:31:46.711Z,26.01
2022-12-27T09:34:15.176Z,23.16
2022-12-27T09:36:43.542Z,21.57
2022-12-27T09:39:14.063Z,21.38
2022-12-27T09:45:01.266Z,19.57
2022-12-27T09:47:56.986Z,17.60
2022-12-27T09:50:46.985Z,15.89
2022-12-27T09:53:25.119Z,14.79
2022-12-27T09:55:54.532Z,15.63
2022-12-27T09:58:34.949Z,14.84
2022-12-27T10:01:03.513Z,13.89
2022-12-27T10:03:31.984Z,14.45
2022-12-27T10:06:27.902Z,13.93
2022-12-27T10:09:24.318Z,13.37
2022-12-27T10:11:59.574Z,13.43
2022-12-27T10:14:52.902Z,13.42
2022-12-27T10:17:39.794Z,13.77
2022-12-27T10:20:26.871Z,13.30
2022-12-27T10:23:06.446Z,13.27
2022-12-27T10:25:35.455Z,14.13
2022-12-27T10:28:28.120Z,13.65
2022-12-27T10:30:56.808Z,13.35
2022-12-27T10:33:28.614Z,13.29
2022-12-27T10:35:57.258Z,12.92
2022-12-27T10:38:32.901Z,13.14
2022-12-27T10:41:24.904Z,13.50
2022-12-27T10:43:54.769Z,13.14
2022-12-27T10:46:32.148Z,13.08
2022-12-27T10:51:53.229Z,14.15
2022-12-27T10:54:24.132Z,13.04
2022-12-27T10:56:52.785Z,12.61
2022-12-27T10:59:26.124Z,13.57
2022-12-27T11:02:00.738Z,13.75
2022-12-27T11:04:30.317Z,13.58
2022-12-27T11:07:04.734Z,13.58
2022-12-27T11:09:36.209Z,13.05
2022-12-27T11:12:17.158Z,12.82
2022-12-27T11:14:55.235Z,12.97
2022-12-27T11:17:43.993Z,12.52
2022-12-27T11:20:15.066Z,12.66
2022-12-27T11:22:48.594Z,13.20
2022-12-27T11:25:17.145Z,13.70
2022-12-27T11:27:51.457Z,13.50
2022-12-27T11:30:40.569Z,13.98
2022-12-27T11:33:26.873Z,14.34
2022-12-27T11:35:56.098Z,14.86
2022-12-27T11:38:34.714Z,14.90
2022-12-27T11:41:34.636Z,15.24
2022-12-27T11:44:08.910Z,14.86
2022-12-27T11:47:10.939Z,12.79
2022-12-27T11:50:24.495Z,12.38
2022-12-27T11:53:30.520Z,12.12
2022-12-27T11:56:20.275Z,11.73
2022-12-27T11:59:13.070Z,11.78
2022-12-27T12:02:05.864Z,11.12
2022-12-27T12:04:55.944Z,11.25
2022-12-27T12:07:24.409Z,11.11
2022-12-27T12:10:11.709Z,11.83
2022-12-27T12:12:49.229Z,11.39
2022-12-27T12:15:24.229Z,11.21
2022-12-27T12:17:57.356Z,11.57
2022-12-27T12:20:50.810Z,11.29
2022-12-27T12:23:20.116Z,11.83
2022-12-27T12:26:26.424Z,11.67
2022-12-27T12:29:25.497Z,11.55
2022-12-27T12:32:05.523Z,11.84
2022-12-27T12:35:19.160Z,11.95
2022-12-27T12:38:04.568Z,12.36
2022-12-27T12:40:38.732Z,12.05
2022-12-27T12:43:18.455Z,11.47
2022-12-27T12:46:21.451Z,11.67
2022-12-27T12:48:57.119Z,11.83
2022-12-27T12:51:50.441Z,10.97
2022-12-27T12:54:39.349Z,11.94
2022-12-27T12:57:17.754Z,12.30
2022-12-27T13:00:07.425Z,11.19
2022-12-27T13:02:59.829Z,11.84
2022-12-27T13:05:49.035Z,12.15
2022-12-27T13:08:23.980Z,10.98
2022-12-27T13:11:01.810Z,11.83
2022-12-27T13:13:52.441Z,12.43
2022-12-27T13:16:35.946Z,12.41
2022-12-27T13:19:20.432Z,11.75
2022-12-27T13:21:49.597Z,11.43
2022-12-27T13:24:27.876Z,11.07
2022-12-27T13:27:05.578Z,11.06
2022-12-27T13:30:06.718Z,11.48
2022-12-27T13:32:56.858Z,11.06
2022-12-27T13:35:39.557Z,11.47
2022-12-27T13:38:51.560Z,11.62
2022-12-27T13:41:39.147Z,11.67
2022-12-27T13:44:13.894Z,12.00
2022-12-27T13:47:12.936Z,12.13
2022-12-27T13:50:03.605Z,12.53
2022-12-27T13:53:00.036Z,12.87
2022-12-27T13:55:52.205Z,12.98
2022-12-27T13:58:32.833Z,11.74
2022-12-27T14:01:40.386Z,11.83
2022-12-27T14:04:33.308Z,12.65
2022-12-27T14:07:30.900Z,12.59
2022-12-27T14:10:36.737Z,12.57
2022-12-27T14:13:10.316Z,12.92
2022-12-27T14:16:00.727Z,12.84
2022-12-27T14:19:03.493Z,12.49
2022-12-27T14:22:23.660Z,12.67
2022-12-27T14:25:33.448Z,12.40
2022-12-27T14:28:24.568Z,12.07
2022-12-27T14:31:12.176Z,12.30
2022-12-27T14:34:01.876Z,12.15
2022-12-27T14:36:35.486Z,11.98
2022-12-27T14:39:48.798Z,12.08
2022-12-27T14:42:54.163Z,11.84
2022-12-27T14:45:43.839Z,12.39
2022-12-27T14:48:39.580Z,12.02
2022-12-27T14:54:36.054Z,11.96
2022-12-27T14:57:24.544Z,11.96
2022-12-27T15:00:01.847Z,12.40
2022-12-27T15:02:50.703Z,12.68
2022-12-27T15:05:44.068Z,12.58
2022-12-27T15:08:30.524Z,11.73
2022-12-27T15:11:17.549Z,12.40
2022-12-27T15:14:00.594Z,12.38
2022-12-27T15:16:37.908Z,12.45
2022-12-27T15:19:20.139Z,11.69
2022-12-27T15:22:10.396Z,11.31
2022-12-27T15:24:48.785Z,11.42
2022-12-27T15:27:43.525Z,11.29
2022-12-27T15:30:19.993Z,11.75
2022-12-27T15:32:57.168Z,12.06
2022-12-27T15:35:40.498Z,12.14
2022-12-27T15:38:12.493Z,12.17
2022-12-27T15:41:13.383Z,12.30
2022-12-27T15:44:03.433Z,12.26
2022-12-27T15:47:13.556Z,12.31
2022-12-27T15:49:58.499Z,12.34
2022-12-27T15:52:39.391Z,12.29
2022-12-27T15:55:21.975Z,12.28
2022-12-27T15:58:02.170Z,11.93
2022-12-27T16:00:34.264Z,12.06
2022-12-27T16:03:25.673Z,12.15
2022-12-27T16:05:55.010Z,12.04
2022-12-27T16:08:40.159Z,11.58
2022-12-27T16:11:15.237Z,11.27
2022-12-27T16:13:48.904Z,11.48
2022-12-27T16:16:30.052Z,11.31
2022-12-27T16:19:05.578Z,11.14
2022-12-27T16:21:42.927Z,10.97
2022-12-27T16:24:17.478Z,10.99
2022-12-27T16:27:02.030Z,10.75
2022-12-27T16:29:37.780Z,10.37
2022-12-27T16:32:18.127Z,10.37
2022-12-27T16:34:55.600Z,10.55
2022-12-27T16:37:31.755Z,10.67
2022-12-27T16:40:29.088Z,10.58
2022-12-27T16:42:57.688Z,10.56
2022-12-27T16:45:35.291Z,10.49
2022-12-27T16:48:37.838Z,10.31
2022-12-27T16:51:31.420Z,10.10
2022-12-27T16:54:17.395Z,10.10
2022-12-27T16:56:49.236Z,9.66
2022-12-27T17:00:06.121Z,9.45
2022-12-27T17:02:43.826Z,9.54
2022-12-27T17:05:21.653Z,9.42
2022-12-27T17:07:54.912Z,8.31
2022-12-27T17:10:32.876Z,8.96
2022-12-27T17:13:18.546Z,9.06
2022-12-27T17:16:05.951Z,9.30
2022-12-27T17:18:46.437Z,9.08
2022-12-27T17:21:29.667Z,9.09
2022-12-27T17:24:05.510Z,8.59
2022-12-27T17:26:56.069Z,8.46
2022-12-27T17:30:08.592Z,8.61
2022-12-27T17:32:38.653Z,8.79
2022-12-27T17:35:28.518Z,8.56
2022-12-27T17:38:25.628Z,8.17
2022-12-27T17:41:43.895Z,7.66
2022-12-27T17:44:43.871Z,6.96
2022-12-27T17:47:37.533Z,7.68
2022-12-27T17:50:10.316Z,7.42
2022-12-27T17:52:58.548Z,6.95
2022-12-27T17:55:47.723Z,7.66
2022-12-27T17:58:18.154Z,7.62
2022-12-27T18:00:59.531Z,6.89
2022-12-27T18:03:37.260Z,7.12
2022-12-27T18:06:06.961Z,7.06
2022-12-27T18:08:36.608Z,7.27
2022-12-27T18:11:06.997Z,7.59
2022-12-27T18:13:38.237Z,7.30
2022-12-27T18:16:20.959Z,7.40
2022-12-27T18:18:53.561Z,7.90
2022-12-27T18:21:29.387Z,7.56
2022-12-27T18:23:58.931Z,7.50
2022-12-27T18:26:37.810Z,7.77
2022-12-27T18:29:06.422Z,7.97
2022-12-27T18:31:41.677Z,7.77
2022-12-27T18:34:17.098Z,8.40
2022-12-27T18:37:10.149Z,8.00
2022-12-27T18:40:05.325Z,7.04
2022-12-27T18:42:41.609Z,6.28
2022-12-27T18:45:22.556Z,5.62
2022-12-27T18:47:53.804Z,6.15
2022-12-27T18:50:27.534Z,6.48
2022-12-27T18:53:22.145Z,6.98
2022-12-27T18:56:09.239Z,7.42
2022-12-27T18:58:39.243Z,7.52
2022-12-27T19:01:40.031Z,7.65
2022-12-27T19:04:14.905Z,7.24
2022-12-27T19:07:15.611Z,6.60
2022-12-27T19:09:53.609Z,7.00
2022-12-27T19:12:42.898Z,7.68
2022-12-27T19:15:25.291Z,7.86
2022-12-27T19:18:04.863Z,7.83
2022-12-27T19:20:36.900Z,7.58
2022-12-27T19:23:07.172Z,7.10
2022-12-27T19:25:38.690Z,6.86
2022-12-27T19:28:10.960Z,7.00
2022-12-27T19:31:04.529Z,6.59
2022-12-27T19:33:34.536Z,5.47
2022-12-27T19:36:04.114Z,5.34
2022-12-27T19:38:35.900Z,5.44
2022-12-27T19:41:08.848Z,5.24
2022-12-27T19:43:44.975Z,5.40
2022-12-27T19:46:13.786Z,5.18
2022-12-27T19:48:44.283Z,5.41
2022-12-27T19:51:16.212Z,6.13
2022-12-27T19:53:49.004Z,6.16
2022-12-27T19:56:20.559Z,6.12
2022-12-27T19:58:49.749Z,6.17
2022-12-27T20:01:21.451Z,5.98
2022-12-27T20:03:50.308Z,6.55
2022-12-27T20:06:26.805Z,6.63
2022-12-27T20:08:56.928Z,6.59
2022-12-27T20:11:27.602Z,7.12
2022-12-27T20:13:56.129Z,7.08
2022-12-27T20:16:25.111Z,6.65
2022-12-27T20:18:54.390Z,6.42
2022-12-27T20:21:22.896Z,6.90
2022-12-27T20:23:51.493Z,7.07
2022-12-27T20:26:24.728Z,7.15
2022-12-27T20:28:54.173Z,7.28
2022-12-27T20:31:23.496Z,7.40
2022-12-27T20:33:53.904Z,6.78
2022-12-27T20:36:26.336Z,6.64
2022-12-27T20:38:56.087Z,6.33
2022-12-27T20:41:25.419Z,6.61
2022-12-27T20:43:55.330Z,6.56
2022-12-27T20:46:23.867Z,6.83
2022-12-27T20:48:55.276Z,6.92
2022-12-27T20:51:26.089Z,6.42
2022-12-27T20:53:58.213Z,6.29
2022-12-27T20:56:26.774Z,6.65
2022-12-27T20:58:57.932Z,6.63
2022-12-27T21:01:26.659Z,6.54
2022-12-27T21:03:56.471Z,6.56
2022-12-27T21:06:27.335Z,6.64
2022-12-27T21:08:57.528Z,6.53
2022-12-27T21:11:31.549Z,6.59
2022-12-27T21:14:01.261Z,6.36
2022-12-27T21:16:31.023Z,6.22
2022-12-27T21:19:03.196Z,6.43
2022-12-27T21:21:32.741Z,6.34
2022-12-27T21:24:01.271Z,6.34
2022-12-27T21:26:31.955Z,6.38
2022-12-27T21:29:00.780Z,6.37
2022-12-27T21:31:29.647Z,6.40
2022-12-27T21:33:59.719Z,6.33
2022-12-27T21:36:31.190Z,6.38
2022-12-27T21:38:59.927Z,6.08
2022-12-27T21:41:33.637Z,6.02
2022-12-27T21:44:02.603Z,6.30
2022-12-27T21:46:33.204Z,5.62
2022-12-27T21:49:12.721Z,5.50
2022-12-27T21:51:41.884Z,5.83
2022-12-27T21:54:11.155Z,5.87
2022-12-27T21:56:39.982Z,5.54
2022-12-27T21:59:11.335Z,5.73
2022-12-27T22:01:51.531Z,5.59
2022-12-27T22:04:21.917Z,5.53
2022-12-27T22:06:50.724Z,5.34
2022-12-27T22:09:19.794Z,4.72
2022-12-27T22:11:48.699Z,5.53
2022-12-27T22:14:19.643Z,5.24
2022-12-27T22:16:51.975Z,5.66
2022-12-27T22:19:20.534Z,5.64
2022-12-27T22:21:48.993Z,6.03
2022-12-27T22:24:20.087Z,5.81
2022-12-27T22:26:50.522Z,6.18
2022-12-27T22:29:19.240Z,6.00
2022-12-27T22:31:47.703Z,6.08
2022-12-27T22:34:16.231Z,6.30
2022-12-27T22:36:44.713Z,6.39
2022-12-27T22:39:13.208Z,6.23
2022-12-27T22:41:41.551Z,6.42
2022-12-27T22:44:14.950Z,6.49
2022-12-27T22:47:25.222Z,6.49
2022-12-27T22:49:32.049Z,6.21
2022-12-27T22:52:00.542Z,6.50
2022-12-27T22:55:04.824Z,6.44
2022-12-27T22:57:17.234Z,6.14
2022-12-27T22:59:45.672Z,6.09
2022-12-27T23:02:14.192Z,5.61
2022-12-27T23:04:42.806Z,5.77
2022-12-27T23:07:11.197Z,5.85
2022-12-27T23:09:43.413Z,6.08
2022-12-27T23:12:12.769Z,6.13
2022-12-27T23:14:41.358Z,6.14
2022-12-27T23:17:09.769Z,6.03
2022-12-27T23:19:38.220Z,6.29
2022-12-27T23:22:06.567Z,5.93
2022-12-27T23:24:34.917Z,6.04
2022-12-27T23:27:03.659Z,6.24
2022-12-27T23:29:32.101Z,5.79
2022-12-27T23:32:00.506Z,6.02
2022-12-27T23:34:29.472Z,6.12
2022-12-27T23:36:58.749Z,6.27
2022-12-27T23:39:27.299Z,6.24
2022-12-27T23:41:55.763Z,6.33
2022-12-27T23:44:34.337Z,6.15
2022-12-27T23:47:04.648Z,5.61
2022-12-27T23:49:33.157Z,5.62
2022-12-27T23:52:01.560Z,5.83
2022-12-27T23:54:29.959Z,6.03
2022-12-27T23:56:58.332Z,6.10
2022-12-27T23:59:46.645Z,6.16
